Terminal Aerodrome Forecast
Issued by NWS

Home | Current Version | Previous Version | Text Only | Print | Product List | Glossary On
Versions: 1 2 3 4 5 6 7 8 9 10 11 12 13 14 15 16 17 18 19 20 21
000
FTUS43 KPAH 180800 AAA
TAFCGI
TAF AMD
KCGI 180841Z 1809/1906 00000KT 1SM BR SCT005
      TEMPO 1809/1812 1/4SM FG VV005
     FM181300 VRB02KT 4SM BR SCT005 BKN015
     FM181600 27004KT P6SM SCT010 BKN025
     FM190000 VRB02KT P6SM SCT030 BKN150=

USA.gov is the U.S. government's official web portal to all federal, state and local government web resources and services.